Shintoukou — JD4184 — position and weather

sailwx.info

Track history (hours):
 
Tides and Currents Weather Stations Pressure Air Temp Water Temp Dewpoint Dewpoint Depression Visibility Wind Speed Wind Dir Waves Ship Positions

Shintoukou

Last reported at 2017-Oct-17 04:10 UTC. Time now 2017-Oct-18 11:22 UTC.
Position N 34°38' E 134°58'.

Length 45 m; draft 3 m.

Type: Tanker. MMSI: 431009442.

Date/timePositionNaut miles runAvg speedWind from/ knotsBaromVisibWave heightAir tempDewpointWater temp
2017-Oct-17 04:10N 34°38' E 134°58'2 9.7
2017-Oct-17 04:00N 34°38' E 134°59'4 8.5
2017-Oct-17 03:31N 34°37' E 135°05'510.3
2017-Oct-17 03:00N 34°38' E 135°11'510.6
2017-Oct-17 02:30N 34°38' E 135°17'510.6
2017-Oct-17 02:00N 34°38' E 135°24'3 1.1
2017-Oct-16 23:05N 34°38' E 135°28'0 0.0
2017-Oct-16 22:59N 34°38' E 135°28'1 1.6
2017-Oct-16 22:30N 34°38' E 135°27'4 7.8
2017-Oct-16 22:00N 34°40' E 135°23'1 0.1
2017-Oct-16 13:24N 34°40' E 135°22'3 6.4
2017-Oct-16 13:00N 34°38' E 135°19'5 9.4
2017-Oct-16 12:31N 34°37' E 135°13'5 9.4
2017-Oct-16 11:59N 34°36' E 135°07'  
Track history (hours):
 
Tides and Currents Weather Stations Pressure Air Temp Water Temp Dewpoint Dewpoint Depression Visibility Wind Speed Wind Dir Waves Ship Positions

Shintoukou

Last reported at 2017-Oct-17 04:10 UTC. Time now 2017-Oct-18 11:22 UTC.
Position N 34°38' E 134°58'.

Length 45 m; draft 3 m.

Type: Tanker. MMSI: 431009442.

Date/timePositionNaut miles runAvg speedWind from/ knotsBaromVisibWave heightAir tempDewpointWater temp
2017-Oct-17 04:10N 34°38' E 134°58'2 9.7
2017-Oct-17 04:00N 34°38' E 134°59'4 8.5
2017-Oct-17 03:31N 34°37' E 135°05'510.3
2017-Oct-17 03:00N 34°38' E 135°11'510.6
2017-Oct-17 02:30N 34°38' E 135°17'510.6
2017-Oct-17 02:00N 34°38' E 135°24'3 1.1
2017-Oct-16 23:05N 34°38' E 135°28'0 0.0
2017-Oct-16 22:59N 34°38' E 135°28'1 1.6
2017-Oct-16 22:30N 34°38' E 135°27'4 7.8
2017-Oct-16 22:00N 34°40' E 135°23'1 0.1
2017-Oct-16 13:24N 34°40' E 135°22'3 6.4
2017-Oct-16 13:00N 34°38' E 135°19'5 9.4
2017-Oct-16 12:31N 34°37' E 135°13'5 9.4
2017-Oct-16 11:59N 34°36' E 135°07'  

Dump ship's entire track history